Kaami — C6VO9 — position and weather

sailwx.info

Track history (hours):
 
Tides and Currents Weather Stations Pressure Air Temp Water Temp Dewpoint Dewpoint Depression Visibility Wind Speed Wind Dir Waves Ship Positions

Kaami

Last reported at 2016-May-24 18:10 UTC. Time now 2016-May-24 23:34 UTC.
Position N 38°28' W 010°01'.

Length 90 m; draft 5.8 m.

Type: Cargo ship. MMSI: 308542000.

Date/timePositionNaut miles runAvg speedWind from/ knotsBaromVisibWave heightAir tempDewpointWater temp
2016-May-24 18:10N 38°28' W 010°01'  
2016-May-21 12:15N 45°55' W 003°28'7 8.2
2016-May-21 11:24N 45°58' W 003°20'20 8.4
2016-May-21 09:04N 46°07' W 002°55'5 8.9
2016-May-21 08:30N 46°10' W 002°48'11 9.1
2016-May-21 07:19N 46°15' W 002°34'8 9.2
2016-May-21 06:27N 46°18' W 002°24'8 9.1
2016-May-21 05:33N 46°20' W 002°12'9 9.0
2016-May-21 04:33N 46°23' W 002°00'9 8.6
2016-May-21 03:34N 46°27' W 001°49'3 3.2
2016-May-21 02:33N 46°30' W 001°47'0 0.0
2016-May-21 01:33N 46°30' W 001°47'0 0.0
2016-May-21 00:33N 46°30' W 001°47'0 0.0
2016-May-20 23:33N 46°30' W 001°47'0 0.0
2016-May-20 22:33N 46°30' W 001°47'0 0.0
2016-May-20 21:33N 46°30' W 001°47'0 0.0
2016-May-20 20:33N 46°30' W 001°47'0 0.0
2016-May-20 19:33N 46°30' W 001°47'0 0.0
2016-May-20 18:33N 46°30' W 001°47'0 0.0
2016-May-20 17:33N 46°30' W 001°47'0 0.0
2016-May-20 16:33N 46°30' W 001°47'0 0.0
2016-May-20 15:33N 46°30' W 001°47'0 0.0
2016-May-20 14:32N 46°30' W 001°47'0 0.0
2016-May-20 13:32N 46°30' W 001°47'0 0.0
2016-May-20 12:32N 46°30' W 001°47'0 0.0
2016-May-20 11:32N 46°30' W 001°47'0 0.0
2016-May-20 10:32N 46°30' W 001°47'0 0.0
2016-May-20 09:32N 46°30' W 001°47'0 0.0
2016-May-20 08:32N 46°30' W 001°47'0 0.0
2016-May-20 07:32N 46°30' W 001°47'0 0.0
2016-May-20 06:32N 46°30' W 001°47'0 0.0
2016-May-20 05:32N 46°30' W 001°47'0 0.0
2016-May-20 04:32N 46°30' W 001°47'0 0.0
2016-May-20 03:32N 46°30' W 001°47'0 0.1
2016-May-20 02:32N 46°30' W 001°48'0 0.0
2016-May-20 01:32N 46°30' W 001°48'0 0.0
2016-May-20 00:32N 46°30' W 001°48'0 0.0
2016-May-19 23:32N 46°30' W 001°48'0 0.0
2016-May-19 22:32N 46°30' W 001°48'0 0.0
2016-May-19 21:32N 46°30' W 001°48'0 0.0
2016-May-19 20:32N 46°30' W 001°48'0 0.0
2016-May-19 19:32N 46°30' W 001°48'0 0.0
2016-May-19 18:32N 46°30' W 001°48'0 0.0
2016-May-19 17:32N 46°30' W 001°48'0 0.0
2016-May-19 16:32N 46°30' W 001°48'0 0.0
2016-May-19 15:32N 46°30' W 001°48'0 0.0
2016-May-19 14:32N 46°30' W 001°48'0 0.0
2016-May-19 13:32N 46°30' W 001°48'0 0.0
2016-May-19 12:32N 46°30' W 001°48'0 0.0
2016-May-19 11:32N 46°30' W 001°48'0 0.0
2016-May-19 10:32N 46°30' W 001°48'0 0.0
2016-May-19 09:32N 46°30' W 001°48'0 0.0
2016-May-19 08:32N 46°30' W 001°48'0 0.0
2016-May-19 07:32N 46°30' W 001°48'0 0.0
2016-May-19 06:32N 46°30' W 001°48'0 0.0
2016-May-19 05:32N 46°30' W 001°48'0 0.0
2016-May-19 04:32N 46°30' W 001°48'0 0.0
2016-May-19 03:32N 46°30' W 001°48'0 0.0
2016-May-19 02:32N 46°30' W 001°48'0 0.0
2016-May-19 01:31N 46°30' W 001°48'0 0.0
2016-May-19 00:31N 46°30' W 001°48'0 0.0
2016-May-18 23:31N 46°30' W 001°48'0 0.0
2016-May-18 22:31N 46°30' W 001°48'0 0.0
2016-May-18 21:31N 46°30' W 001°48'0 0.0
2016-May-18 20:31N 46°30' W 001°48'0 0.0
2016-May-18 19:31N 46°30' W 001°48'0 0.0
2016-May-18 18:31N 46°30' W 001°48'0 0.0
2016-May-18 17:28N 46°30' W 001°48'0 0.0
2016-May-18 16:31N 46°30' W 001°48'0 0.0
2016-May-18 15:31N 46°30' W 001°48'0 0.0
2016-May-18 14:31N 46°30' W 001°48'0 0.0
2016-May-18 13:31N 46°30' W 001°48'0 0.0
2016-May-18 12:31N 46°30' W 001°48'0 0.0
2016-May-18 11:31N 46°30' W 001°48'0 0.0
2016-May-18 10:31N 46°30' W 001°48'0 0.0
2016-May-18 09:31N 46°30' W 001°48'0 0.0
2016-May-18 08:31N 46°30' W 001°48'0 0.0
2016-May-18 07:31N 46°30' W 001°48'0 0.0
2016-May-18 06:31N 46°30' W 001°48'0 0.0
2016-May-18 05:33N 46°30' W 001°48'0 0.0
2016-May-18 04:33N 46°30' W 001°48'0 0.0
2016-May-18 03:33N 46°30' W 001°48'0 0.0
2016-May-18 02:33N 46°30' W 001°48'0 0.0
2016-May-18 01:33N 46°30' W 001°48'0 0.0
2016-May-18 00:33N 46°30' W 001°48'0 0.0
2016-May-17 23:33N 46°30' W 001°48'0 0.0
2016-May-17 22:33N 46°30' W 001°48'0 0.0
2016-May-17 21:33N 46°30' W 001°48'0 0.0
2016-May-17 20:33N 46°30' W 001°48'0 0.0
2016-May-17 19:33N 46°30' W 001°48'0 0.0
2016-May-17 18:33N 46°30' W 001°48'0 0.0
2016-May-17 17:33N 46°30' W 001°48'0 0.0
2016-May-17 16:33N 46°30' W 001°48'0 0.0
2016-May-17 15:33N 46°30' W 001°48'0 0.0
2016-May-17 14:33N 46°30' W 001°48'0 0.0
2016-May-17 13:33N 46°30' W 001°48'0 0.0
2016-May-17 12:33N 46°30' W 001°47'4 4.3
2016-May-17 11:33N 46°26' W 001°50'4 3.6
2016-May-17 10:33N 46°23' W 001°53'4 3.7
2016-May-17 09:33N 46°20' W 001°57'4 3.7
2016-May-17 08:31N 46°18' W 002°00'23 7.0
2016-May-17 05:19N 46°02' W 002°24'251 9.4
2016-May-16 02:29N 44°06' W 007°40'21 9.2
2016-May-16 00:12N 43°57' W 008°06'  
Track history (hours):
 
Tides and Currents Weather Stations Pressure Air Temp Water Temp Dewpoint Dewpoint Depression Visibility Wind Speed Wind Dir Waves Ship Positions

Kaami

Last reported at 2016-May-24 18:10 UTC. Time now 2016-May-24 23:34 UTC.
Position N 38°28' W 010°01'.

Length 90 m; draft 5.8 m.

Type: Cargo ship. MMSI: 308542000.

Date/timePositionNaut miles runAvg speedWind from/ knotsBaromVisibWave heightAir tempDewpointWater temp
2016-May-24 18:10N 38°28' W 010°01'  
2016-May-21 12:15N 45°55' W 003°28'7 8.2
2016-May-21 11:24N 45°58' W 003°20'20 8.4
2016-May-21 09:04N 46°07' W 002°55'5 8.9
2016-May-21 08:30N 46°10' W 002°48'11 9.1
2016-May-21 07:19N 46°15' W 002°34'8 9.2
2016-May-21 06:27N 46°18' W 002°24'8 9.1
2016-May-21 05:33N 46°20' W 002°12'9 9.0
2016-May-21 04:33N 46°23' W 002°00'9 8.6
2016-May-21 03:34N 46°27' W 001°49'3 3.2
2016-May-21 02:33N 46°30' W 001°47'0 0.0
2016-May-21 01:33N 46°30' W 001°47'0 0.0
2016-May-21 00:33N 46°30' W 001°47'0 0.0
2016-May-20 23:33N 46°30' W 001°47'0 0.0
2016-May-20 22:33N 46°30' W 001°47'0 0.0
2016-May-20 21:33N 46°30' W 001°47'0 0.0
2016-May-20 20:33N 46°30' W 001°47'0 0.0
2016-May-20 19:33N 46°30' W 001°47'0 0.0
2016-May-20 18:33N 46°30' W 001°47'0 0.0
2016-May-20 17:33N 46°30' W 001°47'0 0.0
2016-May-20 16:33N 46°30' W 001°47'0 0.0
2016-May-20 15:33N 46°30' W 001°47'0 0.0
2016-May-20 14:32N 46°30' W 001°47'0 0.0
2016-May-20 13:32N 46°30' W 001°47'0 0.0
2016-May-20 12:32N 46°30' W 001°47'0 0.0
2016-May-20 11:32N 46°30' W 001°47'0 0.0
2016-May-20 10:32N 46°30' W 001°47'0 0.0
2016-May-20 09:32N 46°30' W 001°47'0 0.0
2016-May-20 08:32N 46°30' W 001°47'0 0.0
2016-May-20 07:32N 46°30' W 001°47'0 0.0
2016-May-20 06:32N 46°30' W 001°47'0 0.0
2016-May-20 05:32N 46°30' W 001°47'0 0.0
2016-May-20 04:32N 46°30' W 001°47'0 0.0
2016-May-20 03:32N 46°30' W 001°47'0 0.1
2016-May-20 02:32N 46°30' W 001°48'0 0.0
2016-May-20 01:32N 46°30' W 001°48'0 0.0
2016-May-20 00:32N 46°30' W 001°48'0 0.0
2016-May-19 23:32N 46°30' W 001°48'0 0.0
2016-May-19 22:32N 46°30' W 001°48'0 0.0
2016-May-19 21:32N 46°30' W 001°48'0 0.0
2016-May-19 20:32N 46°30' W 001°48'0 0.0
2016-May-19 19:32N 46°30' W 001°48'0 0.0
2016-May-19 18:32N 46°30' W 001°48'0 0.0
2016-May-19 17:32N 46°30' W 001°48'0 0.0
2016-May-19 16:32N 46°30' W 001°48'0 0.0
2016-May-19 15:32N 46°30' W 001°48'0 0.0
2016-May-19 14:32N 46°30' W 001°48'0 0.0
2016-May-19 13:32N 46°30' W 001°48'0 0.0
2016-May-19 12:32N 46°30' W 001°48'0 0.0
2016-May-19 11:32N 46°30' W 001°48'0 0.0
2016-May-19 10:32N 46°30' W 001°48'0 0.0
2016-May-19 09:32N 46°30' W 001°48'0 0.0
2016-May-19 08:32N 46°30' W 001°48'0 0.0
2016-May-19 07:32N 46°30' W 001°48'0 0.0
2016-May-19 06:32N 46°30' W 001°48'0 0.0
2016-May-19 05:32N 46°30' W 001°48'0 0.0
2016-May-19 04:32N 46°30' W 001°48'0 0.0
2016-May-19 03:32N 46°30' W 001°48'0 0.0
2016-May-19 02:32N 46°30' W 001°48'0 0.0
2016-May-19 01:31N 46°30' W 001°48'0 0.0
2016-May-19 00:31N 46°30' W 001°48'0 0.0
2016-May-18 23:31N 46°30' W 001°48'0 0.0
2016-May-18 22:31N 46°30' W 001°48'0 0.0
2016-May-18 21:31N 46°30' W 001°48'0 0.0
2016-May-18 20:31N 46°30' W 001°48'0 0.0
2016-May-18 19:31N 46°30' W 001°48'0 0.0
2016-May-18 18:31N 46°30' W 001°48'0 0.0
2016-May-18 17:28N 46°30' W 001°48'0 0.0
2016-May-18 16:31N 46°30' W 001°48'0 0.0
2016-May-18 15:31N 46°30' W 001°48'0 0.0
2016-May-18 14:31N 46°30' W 001°48'0 0.0
2016-May-18 13:31N 46°30' W 001°48'0 0.0
2016-May-18 12:31N 46°30' W 001°48'0 0.0
2016-May-18 11:31N 46°30' W 001°48'0 0.0
2016-May-18 10:31N 46°30' W 001°48'0 0.0
2016-May-18 09:31N 46°30' W 001°48'0 0.0
2016-May-18 08:31N 46°30' W 001°48'0 0.0
2016-May-18 07:31N 46°30' W 001°48'0 0.0
2016-May-18 06:31N 46°30' W 001°48'0 0.0
2016-May-18 05:33N 46°30' W 001°48'0 0.0
2016-May-18 04:33N 46°30' W 001°48'0 0.0
2016-May-18 03:33N 46°30' W 001°48'0 0.0
2016-May-18 02:33N 46°30' W 001°48'0 0.0
2016-May-18 01:33N 46°30' W 001°48'0 0.0
2016-May-18 00:33N 46°30' W 001°48'0 0.0
2016-May-17 23:33N 46°30' W 001°48'0 0.0
2016-May-17 22:33N 46°30' W 001°48'0 0.0
2016-May-17 21:33N 46°30' W 001°48'0 0.0
2016-May-17 20:33N 46°30' W 001°48'0 0.0
2016-May-17 19:33N 46°30' W 001°48'0 0.0
2016-May-17 18:33N 46°30' W 001°48'0 0.0
2016-May-17 17:33N 46°30' W 001°48'0 0.0
2016-May-17 16:33N 46°30' W 001°48'0 0.0
2016-May-17 15:33N 46°30' W 001°48'0 0.0
2016-May-17 14:33N 46°30' W 001°48'0 0.0
2016-May-17 13:33N 46°30' W 001°48'0 0.0
2016-May-17 12:33N 46°30' W 001°47'4 4.3
2016-May-17 11:33N 46°26' W 001°50'4 3.6
2016-May-17 10:33N 46°23' W 001°53'4 3.7
2016-May-17 09:33N 46°20' W 001°57'4 3.7
2016-May-17 08:31N 46°18' W 002°00'23 7.0
2016-May-17 05:19N 46°02' W 002°24'251 9.4
2016-May-16 02:29N 44°06' W 007°40'21 9.2
2016-May-16 00:12N 43°57' W 008°06'  

Dump ship's entire track history